West McLean, Virginia
Current Conditions -  °F | °C
As of 7:52 AM on Monday 20 Oct 2014 (Local Time) from KDCA Reporting Station
Broken Clouds Broken Clouds  
Wind Chill: 47°   Ceiling: 23000
Heat Index: 47°   Visibility: 10mi
Dew Point: 42°   Wind: 3mph
Humidity: 83%   Direction: 190°S
Pressure: 30.13"   Gusts: NA
Location:  38.93°N, 77.18°W
Report Text: KDCA 201152Z 19003KT 10SM BKN230 08/06 A3013 RMK AO2 SLP203 T00830056 10100 20072 53003
Loading
Personal Weather Stations






























Interactive Weather Map
Tropical Storm Tracking
New forecast layout! Learn more

10-Day Weather Forecast

Advertisements
Track Severe Weather on mobile